Lake Stevens, WA (98258)

1:03 AM PDT on June 02, 2015 (GMT -0700)
KWALAKES12 | | Change Station
CLOSE
Current Station
Personal Weather Station
Location: Lake Stevens, WA
Elevation: 256 ft
Nearby Weather Stations

Elev 256 ft 48.03 °N, 122.06 °W | Updated 8 seconds ago

Overcast
Overcast
55.5 °F
Feels Like 55.5 °F
N
0.0
Wind Variable Wind from South
Gusts 1.0 mph

Today
High -- | Low -- °F
--% Chance of Precip.
Yesterday
High -- | Low -- °F
Precip. -- in
5:12 AM 9:00 PM
Full, 100% visible
Pressure 29.95 in
Visibility 10.0 miles
Clouds Few 1700 ft
Mostly Cloudy 2400 ft
Overcast 6000 ft
Dew Point 52 °F
Humidity 87%
Rainfall 0.00 in
Snow Depth Not available.
UV 0 out of 12
Pollen 7.30 out of 12
Air Quality Not available.
Flu Activity Sporadic
METAR KAWO 020755Z AUTO 14005KT 10SM FEW017 BKN024 OVC060 13/09 A2995 RMK AO1

More Conditions Fewer Conditions

Pressure 29.95 in
Visibility 10.0 miles
Clouds Few 1700 ft
Mostly Cloudy 2400 ft
Overcast 6000 ft
Dew Point 52 °F
Humidity 87%
Rainfall 0.00 in
Snow Depth Not available.
UV 0 out of 12
Pollen 7.30 out of 12
Air Quality Not available.
Flu Activity Sporadic
METAR KAWO 020755Z AUTO 14005KT 10SM FEW017 BKN024 OVC060 13/09 A2995 RMK AO1

More Conditions Fewer Conditions

10-Day Weather Forecast

Almanac

Astronomy

Jun. 02, 2015 Rise Set
Actual Time
Civil Twilight
Nautical Twilight
Astronomical Twilight
Moon
Length of Visible Light
Length of Day
Tomorrow will be .
, % of the Moon is Illuminated

Today's Extremes

State Highs State Lows

Community

WunderPhotos

Upload Photos

1,825,895 photos uploaded!

WunderBlogs® & News

Nearby

Air Quality

  Air Quality AQ Index Pollutant
Not available.

Snow Depth

Station Depth Elevation

Earthquake Activity

City Distance Mag. Time & Date
Minimum magnitude displayed is 2.5.

Coastal Water Temperatures

Place Temperature

Stations

Nearby Weather Stations

Station Location Temp. Windchill Dew Point Humidity Wind Precip. Elev Updated Type